sensor_id;sensor_type;location;lat;lon;timestamp;temperature;humidity
21627;DHT22;10975;47.872;12.972;2023-05-07T00:01:47;13.40;99.90
21627;DHT22;10975;47.872;12.972;2023-05-07T00:04:14;13.30;99.90
21627;DHT22;10975;47.872;12.972;2023-05-07T00:06:41;13.40;99.90
21627;DHT22;10975;47.872;12.972;2023-05-07T00:09:08;13.30;99.90
21627;DHT22;10975;47.872;12.972;2023-05-07T00:11:34;13.30;99.90
21627;DHT22;10975;47.872;12.972;2023-05-07T00:14:02;13.30;99.90
21627;DHT22;10975;47.872;12.972;2023-05-07T00:16:29;13.30;99.90
21627;DHT22;10975;47.872;12.972;2023-05-07T00:18:56;13.30;99.90
21627;DHT22;10975;47.872;12.972;2023-05-07T00:21:23;13.30;99.90
21627;DHT22;10975;47.872;12.972;2023-05-07T00:23:53;13.30;99.90
21627;DHT22;10975;47.872;12.972;2023-05-07T00:26:20;13.30;99.90
21627;DHT22;10975;47.872;12.972;2023-05-07T00:28:47;13.30;99.90
21627;DHT22;10975;47.872;12.972;2023-05-07T00:31:14;13.30;99.90
21627;DHT22;10975;47.872;12.972;2023-05-07T00:33:40;13.20;99.90
21627;DHT22;10975;47.872;12.972;2023-05-07T00:36:07;13.20;99.90
21627;DHT22;10975;47.872;12.972;2023-05-07T00:38:34;13.20;99.90
21627;DHT22;10975;47.872;12.972;2023-05-07T00:41:00;13.20;99.90
21627;DHT22;10975;47.872;12.972;2023-05-07T00:43:28;13.10;99.90
21627;DHT22;10975;47.872;12.972;2023-05-07T00:45:56;13.10;99.90
21627;DHT22;10975;47.872;12.972;2023-05-07T00:48:22;13.10;99.90
21627;DHT22;10975;47.872;12.972;2023-05-07T00:50:50;13.00;99.90
21627;DHT22;10975;47.872;12.972;2023-05-07T00:53:17;13.00;99.90
21627;DHT22;10975;47.872;12.972;2023-05-07T00:55:44;13.00;99.90
21627;DHT22;10975;47.872;12.972;2023-05-07T00:58:11;12.90;99.90
21627;DHT22;10975;47.872;12.972;2023-05-07T01:00:38;12.90;99.90
21627;DHT22;10975;47.872;12.972;2023-05-07T01:03:05;12.90;99.90
21627;DHT22;10975;47.872;12.972;2023-05-07T01:05:32;12.90;99.90
21627;DHT22;10975;47.872;12.972;2023-05-07T01:07:59;12.80;99.90
21627;DHT22;10975;47.872;12.972;2023-05-07T01:10:27;12.80;99.90
21627;DHT22;10975;47.872;12.972;2023-05-07T01:12:57;12.80;99.90
21627;DHT22;10975;47.872;12.972;2023-05-07T01:15:25;12.80;99.90
21627;DHT22;10975;47.872;12.972;2023-05-07T01:17:52;12.80;99.90
21627;DHT22;10975;47.872;12.972;2023-05-07T01:20:19;12.80;99.90
21627;DHT22;10975;47.872;12.972;2023-05-07T01:22:46;12.80;99.90
21627;DHT22;10975;47.872;12.972;2023-05-07T01:25:12;12.80;99.90
21627;DHT22;10975;47.872;12.972;2023-05-07T01:27:40;12.70;99.90
21627;DHT22;10975;47.872;12.972;2023-05-07T01:30:07;12.70;99.90
21627;DHT22;10975;47.872;12.972;2023-05-07T01:32:36;12.70;99.90
21627;DHT22;10975;47.872;12.972;2023-05-07T01:35:05;12.70;99.90
21627;DHT22;10975;47.872;12.972;2023-05-07T01:37:32;12.70;99.90
21627;DHT22;10975;47.872;12.972;2023-05-07T01:39:59;12.70;99.90
21627;DHT22;10975;47.872;12.972;2023-05-07T01:42:26;12.70;99.90
21627;DHT22;10975;47.872;12.972;2023-05-07T01:44:52;12.70;99.90
21627;DHT22;10975;47.872;12.972;2023-05-07T01:47:19;12.60;99.90
21627;DHT22;10975;47.872;12.972;2023-05-07T01:49:47;12.60;99.90
21627;DHT22;10975;47.872;12.972;2023-05-07T01:52:21;12.60;99.90
21627;DHT22;10975;47.872;12.972;2023-05-07T01:54:47;12.60;99.90
21627;DHT22;10975;47.872;12.972;2023-05-07T01:57:14;12.60;99.90
21627;DHT22;10975;47.872;12.972;2023-05-07T01:59:41;12.60;99.90
21627;DHT22;10975;47.872;12.972;2023-05-07T02:02:07;12.50;99.90
21627;DHT22;10975;47.872;12.972;2023-05-07T02:04:34;12.50;99.90
21627;DHT22;10975;47.872;12.972;2023-05-07T02:07:01;12.50;99.90
21627;DHT22;10975;47.872;12.972;2023-05-07T02:09:28;12.50;99.90
21627;DHT22;10975;47.872;12.972;2023-05-07T02:11:54;12.50;99.90
21627;DHT22;10975;47.872;12.972;2023-05-07T02:14:21;12.50;99.90
21627;DHT22;10975;47.872;12.972;2023-05-07T02:16:48;12.50;99.90
21627;DHT22;10975;47.872;12.972;2023-05-07T02:19:15;12.50;99.90
21627;DHT22;10975;47.872;12.972;2023-05-07T02:21:41;12.50;99.90
21627;DHT22;10975;47.872;12.972;2023-05-07T02:24:08;12.50;99.90
21627;DHT22;10975;47.872;12.972;2023-05-07T02:26:35;12.50;99.90
21627;DHT22;10975;47.872;12.972;2023-05-07T02:29:02;12.50;99.90
21627;DHT22;10975;47.872;12.972;2023-05-07T02:31:28;12.50;99.90
21627;DHT22;10975;47.872;12.972;2023-05-07T02:33:55;12.50;99.90
21627;DHT22;10975;47.872;12.972;2023-05-07T02:36:22;12.50;99.90
21627;DHT22;10975;47.872;12.972;2023-05-07T02:38:48;12.40;99.90
21627;DHT22;10975;47.872;12.972;2023-05-07T02:41:15;12.40;99.90
21627;DHT22;10975;47.872;12.972;2023-05-07T02:43:42;12.40;99.90
21627;DHT22;10975;47.872;12.972;2023-05-07T02:46:09;12.40;99.90
21627;DHT22;10975;47.872;12.972;2023-05-07T02:48:36;12.40;99.90
21627;DHT22;10975;47.872;12.972;2023-05-07T02:51:02;12.30;99.90
21627;DHT22;10975;47.872;12.972;2023-05-07T02:53:29;12.30;99.90
21627;DHT22;10975;47.872;12.972;2023-05-07T02:55:56;12.30;99.90
21627;DHT22;10975;47.872;12.972;2023-05-07T02:58:23;12.30;99.90
21627;DHT22;10975;47.872;12.972;2023-05-07T03:00:50;12.30;99.90
21627;DHT22;10975;47.872;12.972;2023-05-07T03:03:17;12.30;99.90
21627;DHT22;10975;47.872;12.972;2023-05-07T03:05:44;12.30;99.90
21627;DHT22;10975;47.872;12.972;2023-05-07T03:08:10;12.30;99.90
21627;DHT22;10975;47.872;12.972;2023-05-07T03:10:37;12.30;99.90
21627;DHT22;10975;47.872;12.972;2023-05-07T03:13:04;12.30;99.90
21627;DHT22;10975;47.872;12.972;2023-05-07T03:15:30;12.30;99.90
21627;DHT22;10975;47.872;12.972;2023-05-07T03:17:57;12.30;99.90
21627;DHT22;10975;47.872;12.972;2023-05-07T03:20:24;12.30;99.90
21627;DHT22;10975;47.872;12.972;2023-05-07T03:22:51;12.20;99.90
21627;DHT22;10975;47.872;12.972;2023-05-07T03:25:18;12.20;99.90
21627;DHT22;10975;47.872;12.972;2023-05-07T03:27:44;12.20;99.90
21627;DHT22;10975;47.872;12.972;2023-05-07T03:30:11;12.20;99.90
21627;DHT22;10975;47.872;12.972;2023-05-07T03:32:38;12.20;99.90
21627;DHT22;10975;47.872;12.972;2023-05-07T03:35:05;12.20;99.90
21627;DHT22;10975;47.872;12.972;2023-05-07T03:37:32;12.20;99.90
21627;DHT22;10975;47.872;12.972;2023-05-07T03:39:59;12.20;99.90
21627;DHT22;10975;47.872;12.972;2023-05-07T03:42:25;12.30;99.90
21627;DHT22;10975;47.872;12.972;2023-05-07T03:44:52;12.20;99.90
21627;DHT22;10975;47.872;12.972;2023-05-07T03:47:19;12.20;99.90
21627;DHT22;10975;47.872;12.972;2023-05-07T03:49:45;12.20;99.90
21627;DHT22;10975;47.872;12.972;2023-05-07T03:52:12;12.20;99.90
21627;DHT22;10975;47.872;12.972;2023-05-07T03:54:39;12.10;99.90
21627;DHT22;10975;47.872;12.972;2023-05-07T03:57:05;12.10;99.90
21627;DHT22;10975;47.872;12.972;2023-05-07T03:59:32;12.10;99.90
21627;DHT22;10975;47.872;12.972;2023-05-07T04:01:59;12.10;99.90
21627;DHT22;10975;47.872;12.972;2023-05-07T04:04:29;12.10;99.90
21627;DHT22;10975;47.872;12.972;2023-05-07T04:06:59;12.10;99.90
21627;DHT22;10975;47.872;12.972;2023-05-07T04:09:26;12.10;99.90
21627;DHT22;10975;47.872;12.972;2023-05-07T04:11:53;12.10;99.90
21627;DHT22;10975;47.872;12.972;2023-05-07T04:14:20;12.10;99.90
21627;DHT22;10975;47.872;12.972;2023-05-07T04:16:47;12.10;99.90
21627;DHT22;10975;47.872;12.972;2023-05-07T04:19:14;12.10;99.90
21627;DHT22;10975;47.872;12.972;2023-05-07T04:21:40;12.10;99.90
21627;DHT22;10975;47.872;12.972;2023-05-07T04:24:07;12.10;99.90
21627;DHT22;10975;47.872;12.972;2023-05-07T04:26:34;12.00;99.90
21627;DHT22;10975;47.872;12.972;2023-05-07T04:29:01;12.10;99.90
21627;DHT22;10975;47.872;12.972;2023-05-07T04:31:27;12.10;99.90
21627;DHT22;10975;47.872;12.972;2023-05-07T04:33:54;12.20;99.90
21627;DHT22;10975;47.872;12.972;2023-05-07T04:36:21;12.20;99.90
21627;DHT22;10975;47.872;12.972;2023-05-07T04:38:48;12.30;99.90
21627;DHT22;10975;47.872;12.972;2023-05-07T04:41:15;12.30;99.90
21627;DHT22;10975;47.872;12.972;2023-05-07T04:43:43;12.30;99.90
21627;DHT22;10975;47.872;12.972;2023-05-07T04:46:09;12.30;99.90
21627;DHT22;10975;47.872;12.972;2023-05-07T04:48:36;12.30;99.90
21627;DHT22;10975;47.872;12.972;2023-05-07T04:51:03;12.30;99.90
21627;DHT22;10975;47.872;12.972;2023-05-07T04:53:30;12.20;99.90
21627;DHT22;10975;47.872;12.972;2023-05-07T04:55:57;12.20;99.90
21627;DHT22;10975;47.872;12.972;2023-05-07T04:58:23;12.20;99.90
21627;DHT22;10975;47.872;12.972;2023-05-07T05:00:50;12.30;99.90
21627;DHT22;10975;47.872;12.972;2023-05-07T05:03:17;12.30;99.90
21627;DHT22;10975;47.872;12.972;2023-05-07T05:05:44;12.40;99.90
21627;DHT22;10975;47.872;12.972;2023-05-07T05:08:11;12.50;99.90
21627;DHT22;10975;47.872;12.972;2023-05-07T05:10:37;12.60;99.90
21627;DHT22;10975;47.872;12.972;2023-05-07T05:13:04;12.60;99.90
21627;DHT22;10975;47.872;12.972;2023-05-07T05:15:31;12.70;99.90
21627;DHT22;10975;47.872;12.972;2023-05-07T05:17:59;12.80;99.90
21627;DHT22;10975;47.872;12.972;2023-05-07T05:20:26;12.90;99.90
21627;DHT22;10975;47.872;12.972;2023-05-07T05:22:53;13.00;99.90
21627;DHT22;10975;47.872;12.972;2023-05-07T05:25:19;13.00;99.90
21627;DHT22;10975;47.872;12.972;2023-05-07T05:27:46;13.10;99.90
21627;DHT22;10975;47.872;12.972;2023-05-07T05:30:13;13.10;99.90
21627;DHT22;10975;47.872;12.972;2023-05-07T05:32:40;13.20;99.90
21627;DHT22;10975;47.872;12.972;2023-05-07T05:35:06;13.20;99.90
21627;DHT22;10975;47.872;12.972;2023-05-07T05:37:33;13.30;99.90
21627;DHT22;10975;47.872;12.972;2023-05-07T05:40:00;13.30;99.90
21627;DHT22;10975;47.872;12.972;2023-05-07T05:42:27;13.40;99.90
21627;DHT22;10975;47.872;12.972;2023-05-07T05:44:53;13.40;99.90
21627;DHT22;10975;47.872;12.972;2023-05-07T05:47:20;13.50;99.90
21627;DHT22;10975;47.872;12.972;2023-05-07T05:49:47;13.60;99.90
21627;DHT22;10975;47.872;12.972;2023-05-07T05:52:13;13.60;99.90
21627;DHT22;10975;47.872;12.972;2023-05-07T05:54:40;13.70;99.90
21627;DHT22;10975;47.872;12.972;2023-05-07T05:57:07;13.70;99.90
21627;DHT22;10975;47.872;12.972;2023-05-07T05:59:34;13.80;99.90
21627;DHT22;10975;47.872;12.972;2023-05-07T06:02:00;13.90;99.90
21627;DHT22;10975;47.872;12.972;2023-05-07T06:04:27;13.90;99.90
21627;DHT22;10975;47.872;12.972;2023-05-07T06:06:54;13.90;99.90
21627;DHT22;10975;47.872;12.972;2023-05-07T06:09:21;14.00;99.90
21627;DHT22;10975;47.872;12.972;2023-05-07T06:11:48;14.00;99.90
21627;DHT22;10975;47.872;12.972;2023-05-07T06:14:14;14.00;99.90
21627;DHT22;10975;47.872;12.972;2023-05-07T06:16:41;14.10;99.90
21627;DHT22;10975;47.872;12.972;2023-05-07T06:19:08;14.20;99.90
21627;DHT22;10975;47.872;12.972;2023-05-07T06:21:35;14.30;99.90
21627;DHT22;10975;47.872;12.972;2023-05-07T06:24:02;14.40;99.90
21627;DHT22;10975;47.872;12.972;2023-05-07T06:26:28;14.40;99.90
21627;DHT22;10975;47.872;12.972;2023-05-07T06:28:55;14.50;99.90
21627;DHT22;10975;47.872;12.972;2023-05-07T06:31:22;14.60;99.90
21627;DHT22;10975;47.872;12.972;2023-05-07T06:33:49;14.70;99.90
21627;DHT22;10975;47.872;12.972;2023-05-07T06:36:16;14.70;99.90
21627;DHT22;10975;47.872;12.972;2023-05-07T06:38:43;14.80;99.90
21627;DHT22;10975;47.872;12.972;2023-05-07T06:41:09;14.90;99.90
21627;DHT22;10975;47.872;12.972;2023-05-07T06:43:36;14.90;99.90
21627;DHT22;10975;47.872;12.972;2023-05-07T06:46:03;15.00;99.90
21627;DHT22;10975;47.872;12.972;2023-05-07T06:48:29;15.10;99.90
21627;DHT22;10975;47.872;12.972;2023-05-07T06:50:56;15.10;99.90
21627;DHT22;10975;47.872;12.972;2023-05-07T06:53:24;15.20;99.90
21627;DHT22;10975;47.872;12.972;2023-05-07T06:55:51;15.30;99.90
21627;DHT22;10975;47.872;12.972;2023-05-07T06:58:18;15.40;99.90
21627;DHT22;10975;47.872;12.972;2023-05-07T07:00:45;15.40;99.90
21627;DHT22;10975;47.872;12.972;2023-05-07T07:03:12;15.40;99.90
21627;DHT22;10975;47.872;12.972;2023-05-07T07:05:40;15.50;99.90
21627;DHT22;10975;47.872;12.972;2023-05-07T07:08:07;15.60;99.90
21627;DHT22;10975;47.872;12.972;2023-05-07T07:10:34;15.70;99.90
21627;DHT22;10975;47.872;12.972;2023-05-07T07:13:01;15.80;99.90
21627;DHT22;10975;47.872;12.972;2023-05-07T07:15:27;15.90;99.90
21627;DHT22;10975;47.872;12.972;2023-05-07T07:17:54;15.90;99.90
21627;DHT22;10975;47.872;12.972;2023-05-07T07:20:21;16.00;99.90
21627;DHT22;10975;47.872;12.972;2023-05-07T07:22:48;16.10;99.90
21627;DHT22;10975;47.872;12.972;2023-05-07T07:25:14;16.20;99.90
21627;DHT22;10975;47.872;12.972;2023-05-07T07:27:41;16.20;99.90
21627;DHT22;10975;47.872;12.972;2023-05-07T07:30:08;16.30;99.90
21627;DHT22;10975;47.872;12.972;2023-05-07T07:32:35;16.40;99.90
21627;DHT22;10975;47.872;12.972;2023-05-07T07:35:02;16.50;99.90
21627;DHT22;10975;47.872;12.972;2023-05-07T07:37:29;16.60;99.90
21627;DHT22;10975;47.872;12.972;2023-05-07T07:39:56;16.70;99.90
21627;DHT22;10975;47.872;12.972;2023-05-07T07:42:22;16.80;99.90
21627;DHT22;10975;47.872;12.972;2023-05-07T07:44:49;16.80;99.90
21627;DHT22;10975;47.872;12.972;2023-05-07T07:47:16;16.90;99.90
21627;DHT22;10975;47.872;12.972;2023-05-07T07:49:43;17.00;99.90
21627;DHT22;10975;47.872;12.972;2023-05-07T07:52:10;17.10;99.90
21627;DHT22;10975;47.872;12.972;2023-05-07T07:54:36;17.20;99.90
21627;DHT22;10975;47.872;12.972;2023-05-07T07:57:03;17.20;99.90
21627;DHT22;10975;47.872;12.972;2023-05-07T07:59:30;17.30;99.90
21627;DHT22;10975;47.872;12.972;2023-05-07T08:01:57;17.40;99.90
21627;DHT22;10975;47.872;12.972;2023-05-07T08:04:24;17.50;99.90
21627;DHT22;10975;47.872;12.972;2023-05-07T08:06:51;17.60;99.90
21627;DHT22;10975;47.872;12.972;2023-05-07T08:09:18;17.60;99.90
21627;DHT22;10975;47.872;12.972;2023-05-07T08:11:44;17.70;99.90
21627;DHT22;10975;47.872;12.972;2023-05-07T08:14:11;17.70;99.90
21627;DHT22;10975;47.872;12.972;2023-05-07T08:16:38;17.80;99.90
21627;DHT22;10975;47.872;12.972;2023-05-07T08:19:05;17.90;99.90
21627;DHT22;10975;47.872;12.972;2023-05-07T08:21:31;18.00;99.90
21627;DHT22;10975;47.872;12.972;2023-05-07T08:24:00;18.00;99.90
21627;DHT22;10975;47.872;12.972;2023-05-07T08:26:26;18.10;99.90
21627;DHT22;10975;47.872;12.972;2023-05-07T08:28:53;18.10;99.90
21627;DHT22;10975;47.872;12.972;2023-05-07T08:31:20;18.20;99.90
21627;DHT22;10975;47.872;12.972;2023-05-07T08:33:47;18.20;99.90
21627;DHT22;10975;47.872;12.972;2023-05-07T08:36:13;18.30;99.90
21627;DHT22;10975;47.872;12.972;2023-05-07T08:38:40;18.50;99.90
21627;DHT22;10975;47.872;12.972;2023-05-07T08:41:12;18.60;99.90
21627;DHT22;10975;47.872;12.972;2023-05-07T08:43:39;18.80;99.90
21627;DHT22;10975;47.872;12.972;2023-05-07T08:46:08;18.80;99.90
21627;DHT22;10975;47.872;12.972;2023-05-07T08:48:36;18.80;99.90
21627;DHT22;10975;47.872;12.972;2023-05-07T08:51:03;18.90;99.90
21627;DHT22;10975;47.872;12.972;2023-05-07T08:53:30;18.90;99.90
21627;DHT22;10975;47.872;12.972;2023-05-07T08:55:57;18.90;99.90
21627;DHT22;10975;47.872;12.972;2023-05-07T08:58:23;19.10;99.90
21627;DHT22;10975;47.872;12.972;2023-05-07T09:00:50;19.10;99.90
21627;DHT22;10975;47.872;12.972;2023-05-07T09:03:18;19.10;99.90
21627;DHT22;10975;47.872;12.972;2023-05-07T09:05:44;19.30;99.90
21627;DHT22;10975;47.872;12.972;2023-05-07T09:08:14;19.40;99.90
21627;DHT22;10975;47.872;12.972;2023-05-07T09:10:41;19.40;99.90
21627;DHT22;10975;47.872;12.972;2023-05-07T09:13:07;19.40;99.90
21627;DHT22;10975;47.872;12.972;2023-05-07T09:15:35;19.50;99.90
21627;DHT22;10975;47.872;12.972;2023-05-07T09:18:01;19.60;99.90
21627;DHT22;10975;47.872;12.972;2023-05-07T09:20:29;19.70;99.90
21627;DHT22;10975;47.872;12.972;2023-05-07T09:22:56;19.80;99.90
21627;DHT22;10975;47.872;12.972;2023-05-07T09:25:30;19.90;99.90
21627;DHT22;10975;47.872;12.972;2023-05-07T09:27:57;19.90;99.90
21627;DHT22;10975;47.872;12.972;2023-05-07T09:30:27;20.00;99.90
21627;DHT22;10975;47.872;12.972;2023-05-07T09:32:53;20.00;99.90
21627;DHT22;10975;47.872;12.972;2023-05-07T09:35:20;20.10;99.90
21627;DHT22;10975;47.872;12.972;2023-05-07T09:37:50;20.10;99.90
21627;DHT22;10975;47.872;12.972;2023-05-07T09:40:23;20.10;99.90
21627;DHT22;10975;47.872;12.972;2023-05-07T09:42:51;20.20;99.90
21627;DHT22;10975;47.872;12.972;2023-05-07T09:45:27;20.20;99.90
21627;DHT22;10975;47.872;12.972;2023-05-07T09:47:55;20.20;99.90
21627;DHT22;10975;47.872;12.972;2023-05-07T09:50:29;20.20;99.90
21627;DHT22;10975;47.872;12.972;2023-05-07T09:52:56;20.30;99.90
21627;DHT22;10975;47.872;12.972;2023-05-07T09:55:23;20.40;99.90
21627;DHT22;10975;47.872;12.972;2023-05-07T09:57:50;20.40;99.90
21627;DHT22;10975;47.872;12.972;2023-05-07T10:00:19;20.50;99.90
21627;DHT22;10975;47.872;12.972;2023-05-07T10:02:49;20.50;99.90
21627;DHT22;10975;47.872;12.972;2023-05-07T10:05:19;20.70;99.90
21627;DHT22;10975;47.872;12.972;2023-05-07T10:07:48;20.80;99.90
21627;DHT22;10975;47.872;12.972;2023-05-07T10:10:16;20.80;99.90
21627;DHT22;10975;47.872;12.972;2023-05-07T10:12:43;20.80;99.90
21627;DHT22;10975;47.872;12.972;2023-05-07T10:15:11;20.80;99.90
21627;DHT22;10975;47.872;12.972;2023-05-07T10:17:39;20.90;99.90
21627;DHT22;10975;47.872;12.972;2023-05-07T10:20:06;20.90;99.90
21627;DHT22;10975;47.872;12.972;2023-05-07T10:22:38;21.00;99.90
21627;DHT22;10975;47.872;12.972;2023-05-07T10:25:06;21.10;99.90
21627;DHT22;10975;47.872;12.972;2023-05-07T10:27:35;21.20;99.90
21627;DHT22;10975;47.872;12.972;2023-05-07T10:32:38;21.30;99.90
21627;DHT22;10975;47.872;12.972;2023-05-07T10:35:06;21.30;99.90
21627;DHT22;10975;47.872;12.972;2023-05-07T10:37:37;21.40;99.90
21627;DHT22;10975;47.872;12.972;2023-05-07T10:40:04;21.40;99.90
21627;DHT22;10975;47.872;12.972;2023-05-07T10:42:31;21.40;99.90
21627;DHT22;10975;47.872;12.972;2023-05-07T10:45:01;21.50;99.90
21627;DHT22;10975;47.872;12.972;2023-05-07T10:47:50;21.50;99.90
21627;DHT22;10975;47.872;12.972;2023-05-07T10:50:24;21.60;99.90
21627;DHT22;10975;47.872;12.972;2023-05-07T10:55:37;21.80;99.90
21627;DHT22;10975;47.872;12.972;2023-05-07T11:03:28;22.20;99.90
21627;DHT22;10975;47.872;12.972;2023-05-07T11:11:19;22.20;99.90
21627;DHT22;10975;47.872;12.972;2023-05-07T11:13:46;22.30;99.90
21627;DHT22;10975;47.872;12.972;2023-05-07T11:16:17;22.30;99.90
21627;DHT22;10975;47.872;12.972;2023-05-07T11:18:48;22.30;99.90
21627;DHT22;10975;47.872;12.972;2023-05-07T11:23:58;22.20;99.90
21627;DHT22;10975;47.872;12.972;2023-05-07T11:26:25;22.30;99.90
21627;DHT22;10975;47.872;12.972;2023-05-07T11:28:52;22.30;99.90
21627;DHT22;10975;47.872;12.972;2023-05-07T11:31:23;22.40;99.90
21627;DHT22;10975;47.872;12.972;2023-05-07T11:33:51;22.60;99.90
21627;DHT22;10975;47.872;12.972;2023-05-07T11:36:18;22.70;99.90
21627;DHT22;10975;47.872;12.972;2023-05-07T11:38:46;22.90;99.90
21627;DHT22;10975;47.872;12.972;2023-05-07T11:41:12;23.00;99.90
21627;DHT22;10975;47.872;12.972;2023-05-07T11:43:53;23.00;99.90
21627;DHT22;10975;47.872;12.972;2023-05-07T11:46:20;23.00;99.90
21627;DHT22;10975;47.872;12.972;2023-05-07T11:48:47;23.00;99.90
21627;DHT22;10975;47.872;12.972;2023-05-07T11:51:14;22.90;99.90
21627;DHT22;10975;47.872;12.972;2023-05-07T11:53:45;22.70;99.90
21627;DHT22;10975;47.872;12.972;2023-05-07T11:56:12;22.70;99.90
21627;DHT22;10975;47.872;12.972;2023-05-07T11:58:40;22.70;99.90
21627;DHT22;10975;47.872;12.972;2023-05-07T12:01:07;23.00;99.90
21627;DHT22;10975;47.872;12.972;2023-05-07T12:03:35;23.00;99.90
21627;DHT22;10975;47.872;12.972;2023-05-07T12:06:06;23.00;99.90
21627;DHT22;10975;47.872;12.972;2023-05-07T12:08:35;23.20;99.90
21627;DHT22;10975;47.872;12.972;2023-05-07T12:11:02;23.40;99.90
21627;DHT22;10975;47.872;12.972;2023-05-07T12:13:29;23.50;99.90
21627;DHT22;10975;47.872;12.972;2023-05-07T12:15:55;23.60;99.90
21627;DHT22;10975;47.872;12.972;2023-05-07T12:18:23;23.80;99.90
21627;DHT22;10975;47.872;12.972;2023-05-07T12:20:50;23.80;99.90
21627;DHT22;10975;47.872;12.972;2023-05-07T12:23:17;23.60;99.90
21627;DHT22;10975;47.872;12.972;2023-05-07T12:25:44;23.60;99.90
21627;DHT22;10975;47.872;12.972;2023-05-07T12:28:15;23.60;99.90
21627;DHT22;10975;47.872;12.972;2023-05-07T12:30:42;23.80;99.90
21627;DHT22;10975;47.872;12.972;2023-05-07T12:33:09;23.90;99.90
21627;DHT22;10975;47.872;12.972;2023-05-07T12:35:37;23.90;99.90
21627;DHT22;10975;47.872;12.972;2023-05-07T12:38:13;23.80;99.90
21627;DHT22;10975;47.872;12.972;2023-05-07T12:43:06;23.80;99.90
21627;DHT22;10975;47.872;12.972;2023-05-07T12:45:37;23.80;99.90
21627;DHT22;10975;47.872;12.972;2023-05-07T12:48:04;23.80;99.90
21627;DHT22;10975;47.872;12.972;2023-05-07T12:50:31;23.90;99.90
21627;DHT22;10975;47.872;12.972;2023-05-07T12:52:59;23.90;99.90
21627;DHT22;10975;47.872;12.972;2023-05-07T12:55:26;24.00;99.90
21627;DHT22;10975;47.872;12.972;2023-05-07T12:58:00;23.90;99.90
21627;DHT22;10975;47.872;12.972;2023-05-07T13:00:34;23.90;99.90
21627;DHT22;10975;47.872;12.972;2023-05-07T13:03:01;23.60;99.90
21627;DHT22;10975;47.872;12.972;2023-05-07T13:05:28;23.50;99.90
21627;DHT22;10975;47.872;12.972;2023-05-07T13:07:55;23.60;99.90
21627;DHT22;10975;47.872;12.972;2023-05-07T13:10:22;23.60;99.90
21627;DHT22;10975;47.872;12.972;2023-05-07T13:12:49;23.60;99.90
21627;DHT22;10975;47.872;12.972;2023-05-07T13:15:17;23.50;99.90
21627;DHT22;10975;47.872;12.972;2023-05-07T13:17:43;23.60;99.90
21627;DHT22;10975;47.872;12.972;2023-05-07T13:20:10;23.70;99.90
21627;DHT22;10975;47.872;12.972;2023-05-07T13:22:39;23.80;99.90
21627;DHT22;10975;47.872;12.972;2023-05-07T13:25:06;23.60;99.90
21627;DHT22;10975;47.872;12.972;2023-05-07T13:27:33;23.70;99.90
21627;DHT22;10975;47.872;12.972;2023-05-07T13:30:03;23.80;99.90
21627;DHT22;10975;47.872;12.972;2023-05-07T13:32:30;23.90;99.90
21627;DHT22;10975;47.872;12.972;2023-05-07T13:34:58;24.10;99.90
21627;DHT22;10975;47.872;12.972;2023-05-07T13:37:25;24.10;99.90
21627;DHT22;10975;47.872;12.972;2023-05-07T13:39:51;24.00;99.90
21627;DHT22;10975;47.872;12.972;2023-05-07T13:42:18;23.90;99.90
21627;DHT22;10975;47.872;12.972;2023-05-07T13:44:45;23.90;99.90
21627;DHT22;10975;47.872;12.972;2023-05-07T13:47:12;23.90;99.90
21627;DHT22;10975;47.872;12.972;2023-05-07T13:49:39;23.90;99.90
21627;DHT22;10975;47.872;12.972;2023-05-07T13:52:05;23.80;99.90
21627;DHT22;10975;47.872;12.972;2023-05-07T13:54:32;23.80;99.90
21627;DHT22;10975;47.872;12.972;2023-05-07T13:56:59;23.90;99.90
21627;DHT22;10975;47.872;12.972;2023-05-07T13:59:26;23.80;99.90
21627;DHT22;10975;47.872;12.972;2023-05-07T14:01:52;23.70;99.90
21627;DHT22;10975;47.872;12.972;2023-05-07T14:04:19;23.50;99.90
21627;DHT22;10975;47.872;12.972;2023-05-07T14:06:46;23.50;99.90
21627;DHT22;10975;47.872;12.972;2023-05-07T14:09:12;23.50;99.90
21627;DHT22;10975;47.872;12.972;2023-05-07T14:11:39;23.40;99.90
21627;DHT22;10975;47.872;12.972;2023-05-07T14:14:06;23.40;99.90
21627;DHT22;10975;47.872;12.972;2023-05-07T14:16:33;23.30;99.90
21627;DHT22;10975;47.872;12.972;2023-05-07T14:19:00;23.30;99.90
21627;DHT22;10975;47.872;12.972;2023-05-07T14:21:26;23.30;99.90
21627;DHT22;10975;47.872;12.972;2023-05-07T14:23:53;23.40;99.90
21627;DHT22;10975;47.872;12.972;2023-05-07T14:26:20;23.50;99.90
21627;DHT22;10975;47.872;12.972;2023-05-07T14:28:47;23.50;99.90
21627;DHT22;10975;47.872;12.972;2023-05-07T14:31:13;23.30;99.90
21627;DHT22;10975;47.872;12.972;2023-05-07T14:33:40;23.30;99.90
21627;DHT22;10975;47.872;12.972;2023-05-07T14:36:07;23.20;99.90
21627;DHT22;10975;47.872;12.972;2023-05-07T14:38:34;23.10;99.90
21627;DHT22;10975;47.872;12.972;2023-05-07T14:41:01;23.10;99.90
21627;DHT22;10975;47.872;12.972;2023-05-07T14:43:28;23.10;99.90
21627;DHT22;10975;47.872;12.972;2023-05-07T14:45:54;23.00;99.90
21627;DHT22;10975;47.872;12.972;2023-05-07T14:48:21;23.10;99.90
21627;DHT22;10975;47.872;12.972;2023-05-07T14:50:48;23.20;99.90
21627;DHT22;10975;47.872;12.972;2023-05-07T14:53:15;23.10;99.90
21627;DHT22;10975;47.872;12.972;2023-05-07T14:55:42;23.10;99.90
21627;DHT22;10975;47.872;12.972;2023-05-07T14:58:09;23.10;99.90
21627;DHT22;10975;47.872;12.972;2023-05-07T15:00:36;23.10;99.90
21627;DHT22;10975;47.872;12.972;2023-05-07T15:03:07;23.10;99.90
21627;DHT22;10975;47.872;12.972;2023-05-07T15:05:35;22.90;99.90
21627;DHT22;10975;47.872;12.972;2023-05-07T15:08:04;22.80;99.90
21627;DHT22;10975;47.872;12.972;2023-05-07T15:10:34;22.60;99.90
21627;DHT22;10975;47.872;12.972;2023-05-07T15:13:07;22.60;99.90
21627;DHT22;10975;47.872;12.972;2023-05-07T15:15:34;22.40;99.90
21627;DHT22;10975;47.872;12.972;2023-05-07T15:18:01;22.40;99.90
21627;DHT22;10975;47.872;12.972;2023-05-07T15:20:28;22.40;99.90
21627;DHT22;10975;47.872;12.972;2023-05-07T15:22:54;22.30;99.90
21627;DHT22;10975;47.872;12.972;2023-05-07T15:25:22;22.20;99.90
21627;DHT22;10975;47.872;12.972;2023-05-07T15:27:49;22.30;99.90
21627;DHT22;10975;47.872;12.972;2023-05-07T15:30:16;22.30;99.90
21627;DHT22;10975;47.872;12.972;2023-05-07T15:32:43;22.20;99.90
21627;DHT22;10975;47.872;12.972;2023-05-07T15:35:10;22.10;99.90
21627;DHT22;10975;47.872;12.972;2023-05-07T15:37:37;22.10;99.90